createdAt,value
2018-12-31T00:01:30.564Z,7.80
2018-12-31T00:04:12.435Z,7.80
2018-12-31T00:06:54.496Z,7.80
2018-12-31T00:09:36.165Z,7.80
2018-12-31T00:12:17.824Z,7.80
2018-12-31T00:15:00.935Z,7.80
2018-12-31T00:17:43.136Z,7.90
2018-12-31T00:20:25.088Z,7.90
2018-12-31T00:23:07.162Z,7.90
2018-12-31T00:25:49.214Z,7.90
2018-12-31T00:28:31.130Z,7.90
2018-12-31T00:31:13.161Z,7.90
2018-12-31T00:33:53.461Z,7.90
2018-12-31T00:36:42.732Z,7.90
2018-12-31T00:39:24.641Z,7.90
2018-12-31T00:42:06.220Z,7.90
2018-12-31T00:44:47.639Z,7.80
2018-12-31T00:47:29.512Z,7.80
2018-12-31T00:50:11.638Z,7.80
2018-12-31T00:52:53.368Z,7.80
2018-12-31T00:55:35.523Z,7.80
2018-12-31T00:58:17.916Z,7.80
2018-12-31T01:00:59.973Z,7.80
2018-12-31T01:03:41.934Z,7.80
2018-12-31T01:06:23.822Z,7.80
2018-12-31T01:09:05.930Z,7.80
2018-12-31T01:11:46.270Z,7.80
2018-12-31T01:20:38.331Z,7.70
2018-12-31T01:23:19.919Z,7.70
2018-12-31T01:26:01.940Z,7.70
2018-12-31T01:28:43.970Z,7.70
2018-12-31T01:31:25.972Z,7.70
2018-12-31T01:34:07.850Z,7.70
2018-12-31T01:36:49.679Z,7.60
2018-12-31T01:39:31.359Z,7.60
2018-12-31T01:42:13.255Z,7.60
2018-12-31T01:44:55.293Z,7.60
2018-12-31T01:47:37.376Z,7.60
2018-12-31T01:50:19.269Z,7.60
2018-12-31T01:53:00.755Z,7.60
2018-12-31T01:55:43.128Z,7.50
2018-12-31T01:58:24.860Z,7.50
2018-12-31T02:01:06.910Z,7.50
2018-12-31T02:03:49.032Z,7.50
2018-12-31T02:06:30.786Z,7.50
2018-12-31T02:09:12.474Z,7.50
2018-12-31T02:11:54.283Z,7.50
2018-12-31T02:14:34.604Z,7.50
2018-12-31T02:20:30.223Z,7.40
2018-12-31T02:23:12.306Z,7.40
2018-12-31T02:25:54.332Z,7.40
2018-12-31T02:28:36.094Z,7.40
2018-12-31T02:31:18.200Z,7.40
2018-12-31T02:34:00.382Z,7.40
2018-12-31T02:36:42.378Z,7.40
2018-12-31T02:39:23.964Z,7.40
2018-12-31T02:42:06.480Z,7.40
2018-12-31T02:44:48.415Z,7.40
2018-12-31T02:47:31.401Z,7.40
2018-12-31T02:50:13.384Z,7.40
2018-12-31T02:52:55.249Z,7.40
2018-12-31T02:55:36.960Z,7.40
2018-12-31T02:58:19.152Z,7.40
2018-12-31T03:01:00.970Z,7.40
2018-12-31T03:03:42.637Z,7.40
2018-12-31T03:06:24.490Z,7.40
2018-12-31T03:09:06.200Z,7.40
2018-12-31T03:11:48.401Z,7.40
2018-12-31T03:14:30.143Z,7.40
2018-12-31T03:17:12.222Z,7.40
2018-12-31T03:19:54.402Z,7.40
2018-12-31T03:22:36.158Z,7.40
2018-12-31T03:25:18.217Z,7.40
2018-12-31T03:28:00.076Z,7.30
2018-12-31T03:30:42.289Z,7.30
2018-12-31T03:33:24.329Z,7.40
2018-12-31T03:36:06.167Z,7.40
2018-12-31T03:38:47.853Z,7.30
2018-12-31T03:41:30.114Z,7.30
2018-12-31T03:44:12.133Z,7.30
2018-12-31T03:46:55.162Z,7.30
2018-12-31T03:49:37.199Z,7.30
2018-12-31T03:52:19.308Z,7.30
2018-12-31T03:55:00.744Z,7.30
2018-12-31T03:57:43.422Z,7.30
2018-12-31T04:00:25.445Z,7.30
2018-12-31T04:03:07.614Z,7.30
2018-12-31T04:05:49.644Z,7.30
2018-12-31T04:08:31.861Z,7.30
2018-12-31T04:11:14.137Z,7.40
2018-12-31T04:13:54.608Z,7.30
2018-12-31T04:19:52.101Z,7.40
2018-12-31T04:22:34.474Z,7.40
2018-12-31T04:25:16.361Z,7.40
2018-12-31T04:27:58.843Z,7.40
2018-12-31T04:30:41.081Z,7.40
2018-12-31T04:33:22.574Z,7.40
2018-12-31T04:36:04.628Z,7.40
2018-12-31T04:38:46.700Z,7.40
2018-12-31T04:41:28.440Z,7.40
2018-12-31T04:44:10.363Z,7.50
2018-12-31T04:46:52.312Z,7.50
2018-12-31T04:49:34.085Z,7.50
2018-12-31T04:52:16.688Z,7.50
2018-12-31T04:54:58.197Z,7.50
2018-12-31T04:57:39.898Z,7.50
2018-12-31T05:00:21.621Z,7.50
2018-12-31T05:03:03.021Z,7.50
2018-12-31T05:05:45.013Z,7.50
2018-12-31T05:08:26.491Z,7.50
2018-12-31T05:11:08.320Z,7.50
2018-12-31T05:13:50.404Z,7.60
2018-12-31T05:16:32.253Z,7.50
2018-12-31T05:19:14.047Z,7.60
2018-12-31T05:21:55.868Z,7.60
2018-12-31T05:24:37.857Z,7.60
2018-12-31T05:27:19.840Z,7.60
2018-12-31T05:30:01.981Z,7.60
2018-12-31T05:32:43.652Z,7.50
2018-12-31T05:35:25.900Z,7.60
2018-12-31T05:38:07.735Z,7.60
2018-12-31T05:40:49.867Z,7.60
2018-12-31T05:43:32.196Z,7.60
2018-12-31T05:46:14.242Z,7.60
2018-12-31T05:48:56.289Z,7.60
2018-12-31T05:51:38.473Z,7.60
2018-12-31T05:54:20.375Z,7.60
2018-12-31T05:57:02.441Z,7.60
2018-12-31T05:59:44.493Z,7.60
2018-12-31T06:02:26.053Z,7.60
2018-12-31T06:05:07.878Z,7.60
2018-12-31T06:07:49.410Z,7.60
2018-12-31T06:10:31.068Z,7.60
2018-12-31T06:13:12.860Z,7.60
2018-12-31T06:15:54.408Z,7.60
2018-12-31T06:18:36.606Z,7.60
2018-12-31T06:21:18.435Z,7.60
2018-12-31T06:24:00.312Z,7.60
2018-12-31T06:26:41.893Z,7.60
2018-12-31T06:29:23.650Z,7.60
2018-12-31T06:32:05.240Z,7.60
2018-12-31T06:34:47.412Z,7.70
2018-12-31T06:37:29.191Z,7.70
2018-12-31T06:40:11.286Z,7.70
2018-12-31T06:42:53.003Z,7.70
2018-12-31T06:45:35.162Z,7.60
2018-12-31T06:48:17.230Z,7.70
2018-12-31T06:50:59.236Z,7.70
2018-12-31T06:53:41.275Z,7.70
2018-12-31T06:56:23.430Z,7.70
2018-12-31T06:59:05.754Z,7.70
2018-12-31T07:01:47.702Z,7.70
2018-12-31T07:04:29.314Z,7.70
2018-12-31T07:07:11.091Z,7.70
2018-12-31T07:09:52.949Z,7.70
2018-12-31T07:12:34.689Z,7.70
2018-12-31T07:15:16.600Z,7.70
2018-12-31T07:17:58.603Z,7.70
2018-12-31T07:20:40.752Z,7.70
2018-12-31T07:23:22.771Z,7.70
2018-12-31T07:26:04.950Z,7.70
2018-12-31T07:28:47.282Z,7.70
2018-12-31T07:31:29.705Z,7.70
2018-12-31T07:34:11.117Z,7.70
2018-12-31T07:36:53.220Z,7.80
2018-12-31T07:39:35.565Z,7.70
2018-12-31T07:42:17.253Z,7.70
2018-12-31T07:44:59.341Z,7.80
2018-12-31T07:47:41.417Z,7.80
2018-12-31T07:50:23.267Z,7.80
2018-12-31T07:53:05.178Z,7.80
2018-12-31T07:55:46.892Z,7.80
2018-12-31T07:58:28.577Z,7.80
2018-12-31T08:01:10.347Z,7.80
2018-12-31T08:03:52.297Z,7.80
2018-12-31T08:06:34.202Z,7.90
2018-12-31T08:09:16.026Z,7.90
2018-12-31T08:11:58.221Z,7.90
2018-12-31T08:14:40.318Z,7.90
2018-12-31T08:17:22.434Z,7.90
2018-12-31T08:20:04.009Z,7.90
2018-12-31T08:22:45.935Z,7.90
2018-12-31T08:25:27.981Z,7.90
2018-12-31T08:28:10.184Z,8.00
2018-12-31T08:30:52.564Z,8.00
2018-12-31T08:33:34.620Z,8.00
2018-12-31T08:36:16.421Z,8.00
2018-12-31T08:38:58.567Z,8.00
2018-12-31T08:41:40.674Z,8.00
2018-12-31T08:44:22.770Z,8.00
2018-12-31T08:47:04.596Z,8.10
2018-12-31T08:49:46.736Z,8.10
2018-12-31T08:52:28.516Z,8.10
2018-12-31T08:55:10.318Z,8.20
2018-12-31T08:57:52.246Z,8.20
2018-12-31T09:00:34.332Z,8.20
2018-12-31T09:03:16.321Z,8.20
2018-12-31T09:05:58.242Z,8.30
2018-12-31T09:08:40.129Z,8.30
2018-12-31T09:11:22.251Z,8.40
2018-12-31T09:14:04.533Z,8.40
2018-12-31T09:16:46.574Z,8.40
2018-12-31T09:19:28.618Z,8.50
2018-12-31T09:22:10.814Z,8.50
2018-12-31T09:24:52.811Z,8.50
2018-12-31T09:27:34.764Z,8.60
2018-12-31T09:30:16.894Z,8.60
2018-12-31T09:32:58.653Z,8.60
2018-12-31T09:35:40.752Z,8.60
2018-12-31T09:38:22.673Z,8.70
2018-12-31T09:41:04.828Z,8.70
2018-12-31T09:43:46.619Z,8.70
2018-12-31T09:46:28.800Z,8.70
2018-12-31T09:49:10.721Z,8.70
2018-12-31T09:51:52.584Z,8.70
2018-12-31T09:54:34.245Z,8.80
2018-12-31T09:57:16.117Z,8.80
2018-12-31T09:59:58.162Z,8.80
2018-12-31T10:02:39.854Z,8.80
2018-12-31T10:05:21.453Z,8.80
2018-12-31T10:08:03.614Z,8.80
2018-12-31T10:10:45.636Z,8.80
2018-12-31T10:13:29.008Z,8.90
2018-12-31T10:16:11.006Z,8.90
2018-12-31T10:18:52.910Z,8.90
2018-12-31T10:21:40.931Z,8.90
2018-12-31T10:24:19.230Z,8.90
2018-12-31T10:27:01.375Z,8.90
2018-12-31T10:29:43.394Z,9.00
2018-12-31T10:32:25.255Z,9.00
2018-12-31T10:35:07.587Z,9.00
2018-12-31T10:37:49.836Z,9.10
2018-12-31T10:40:31.681Z,9.00
2018-12-31T10:43:13.609Z,9.00
2018-12-31T10:45:55.706Z,9.10
2018-12-31T10:48:37.545Z,9.10
2018-12-31T10:51:19.803Z,9.10
2018-12-31T10:54:01.982Z,9.10
2018-12-31T10:56:44.107Z,9.10
2018-12-31T10:59:26.068Z,9.10
2018-12-31T11:02:08.122Z,9.10
2018-12-31T11:04:50.190Z,9.10
2018-12-31T11:07:32.317Z,9.10
2018-12-31T11:10:14.336Z,9.10
2018-12-31T11:12:56.496Z,9.10
2018-12-31T11:15:38.468Z,9.10
2018-12-31T11:18:20.396Z,9.10
2018-12-31T11:21:02.399Z,9.10
2018-12-31T11:23:44.124Z,9.10
2018-12-31T11:26:26.378Z,9.10
2018-12-31T11:29:08.084Z,9.10
2018-12-31T11:31:50.126Z,9.20
2018-12-31T11:34:32.379Z,9.20
2018-12-31T11:37:14.460Z,9.20
2018-12-31T11:39:56.422Z,9.30
2018-12-31T11:42:38.571Z,9.30
2018-12-31T11:45:20.499Z,9.30
2018-12-31T11:48:02.605Z,9.30
2018-12-31T11:50:42.943Z,9.30
2018-12-31T11:53:32.192Z,9.30
2018-12-31T11:56:13.649Z,9.30
2018-12-31T11:58:55.533Z,9.30
2018-12-31T12:01:37.416Z,9.30
2018-12-31T12:04:19.381Z,9.30
2018-12-31T12:07:01.326Z,9.30
2018-12-31T12:09:43.270Z,9.30
2018-12-31T12:12:24.530Z,9.30
2018-12-31T12:15:06.549Z,9.40
2018-12-31T12:17:49.203Z,9.40
2018-12-31T12:20:31.171Z,9.40
2018-12-31T12:23:12.994Z,9.40
2018-12-31T12:25:55.473Z,9.50
2018-12-31T12:28:37.023Z,9.50
2018-12-31T12:31:18.910Z,9.60
2018-12-31T12:34:01.599Z,9.60
2018-12-31T12:36:43.069Z,9.60
2018-12-31T12:39:25.118Z,9.70
2018-12-31T12:42:06.560Z,9.60
2018-12-31T12:44:48.543Z,9.60
2018-12-31T12:47:30.823Z,9.60
2018-12-31T12:50:12.977Z,9.60
2018-12-31T12:52:54.696Z,9.70
2018-12-31T12:55:36.793Z,9.70
2018-12-31T12:58:18.651Z,9.80
2018-12-31T13:01:00.338Z,9.90
2018-12-31T13:03:42.234Z,9.90
2018-12-31T13:06:24.360Z,10.00
2018-12-31T13:09:06.125Z,9.90
2018-12-31T13:11:48.048Z,10.00
2018-12-31T13:14:29.652Z,10.00
2018-12-31T13:17:11.382Z,10.00
2018-12-31T13:19:53.448Z,10.00
2018-12-31T13:22:35.236Z,10.10
2018-12-31T13:25:17.324Z,10.20
2018-12-31T13:27:59.325Z,10.30
2018-12-31T13:30:41.619Z,10.30
2018-12-31T13:33:23.180Z,10.30
2018-12-31T13:36:05.211Z,10.30
2018-12-31T13:38:46.986Z,10.40
2018-12-31T13:41:29.002Z,10.40
2018-12-31T13:44:10.857Z,10.40
2018-12-31T13:46:52.884Z,10.40
2018-12-31T13:49:35.285Z,10.40
2018-12-31T13:52:17.083Z,10.50
2018-12-31T13:54:58.918Z,10.50
2018-12-31T13:57:41.016Z,10.50
2018-12-31T14:00:23.014Z,10.40
2018-12-31T14:03:05.078Z,10.40
2018-12-31T14:05:47.214Z,10.40
2018-12-31T14:08:29.219Z,10.30
2018-12-31T14:11:09.443Z,10.30
2018-12-31T14:13:58.588Z,10.20
2018-12-31T14:17:01.280Z,10.20
2018-12-31T14:19:43.634Z,10.20
2018-12-31T14:22:25.708Z,10.20
2018-12-31T14:25:07.929Z,10.20
2018-12-31T14:27:49.715Z,10.10
2018-12-31T14:30:31.697Z,10.10
2018-12-31T14:33:14.060Z,10.00
2018-12-31T14:35:55.944Z,10.00
2018-12-31T14:38:38.092Z,9.90
2018-12-31T14:41:20.134Z,9.90
2018-12-31T14:44:02.062Z,9.80
2018-12-31T14:46:44.134Z,9.80
2018-12-31T14:49:26.332Z,9.80
2018-12-31T14:52:08.179Z,9.80
2018-12-31T14:54:50.032Z,9.80
2018-12-31T14:57:32.283Z,9.80
2018-12-31T15:00:14.022Z,9.70
2018-12-31T15:02:56.521Z,9.70
2018-12-31T15:05:38.777Z,9.70
2018-12-31T15:08:20.902Z,9.60
2018-12-31T15:11:03.021Z,9.60
2018-12-31T15:13:45.004Z,9.60
2018-12-31T15:16:27.063Z,9.50
2018-12-31T15:19:09.221Z,9.50
2018-12-31T15:21:51.254Z,9.50
2018-12-31T15:24:33.402Z,9.50
2018-12-31T15:27:15.154Z,9.40
2018-12-31T15:29:57.380Z,9.40
2018-12-31T15:32:39.773Z,9.40
2018-12-31T15:35:21.391Z,9.40
2018-12-31T15:38:02.823Z,9.40
2018-12-31T15:40:44.972Z,9.40
2018-12-31T15:43:26.352Z,9.40
2018-12-31T15:46:08.466Z,9.40
2018-12-31T15:48:50.100Z,9.40
2018-12-31T15:51:32.166Z,9.40
2018-12-31T15:54:14.068Z,9.40
2018-12-31T15:56:55.810Z,9.40
2018-12-31T15:59:38.252Z,9.40
2018-12-31T16:02:20.102Z,9.40
2018-12-31T16:05:02.390Z,9.50
2018-12-31T16:07:45.971Z,9.50
2018-12-31T16:10:26.983Z,9.50
2018-12-31T16:13:08.762Z,9.50
2018-12-31T16:15:50.846Z,9.40
2018-12-31T16:18:32.572Z,9.40
2018-12-31T16:21:14.667Z,9.40
2018-12-31T16:23:56.455Z,9.50
2018-12-31T16:26:38.498Z,9.40
2018-12-31T16:29:20.612Z,9.40
2018-12-31T16:32:02.795Z,9.40
2018-12-31T16:34:44.618Z,9.30
2018-12-31T16:37:26.956Z,9.30
2018-12-31T16:40:09.138Z,9.30
2018-12-31T16:42:51.652Z,9.30
2018-12-31T16:45:33.934Z,9.30
2018-12-31T16:48:16.008Z,9.20
2018-12-31T16:50:58.642Z,9.20
2018-12-31T16:53:41.132Z,9.20
2018-12-31T16:56:23.090Z,9.20
2018-12-31T16:59:04.668Z,9.20
2018-12-31T17:01:46.450Z,9.20
2018-12-31T17:04:29.402Z,9.20
2018-12-31T17:07:11.867Z,9.20
2018-12-31T17:09:53.807Z,9.20
2018-12-31T17:12:35.939Z,9.20
2018-12-31T17:15:18.330Z,9.20
2018-12-31T17:18:00.493Z,9.20
2018-12-31T17:20:42.415Z,9.10
2018-12-31T17:23:23.882Z,9.20
2018-12-31T17:26:04.679Z,9.20
2018-12-31T17:28:53.848Z,9.20
2018-12-31T17:31:35.846Z,9.20
2018-12-31T17:34:18.074Z,9.30
2018-12-31T17:36:59.598Z,9.20
2018-12-31T17:39:41.173Z,9.20
2018-12-31T17:42:22.666Z,9.20
2018-12-31T17:45:04.411Z,9.30
2018-12-31T17:47:46.340Z,9.30
2018-12-31T17:50:28.714Z,9.30
2018-12-31T17:53:10.743Z,9.20
2018-12-31T17:55:52.860Z,9.30
2018-12-31T17:58:34.739Z,9.20
2018-12-31T18:01:16.481Z,9.20
2018-12-31T18:03:58.192Z,9.20
2018-12-31T18:06:40.485Z,9.20
2018-12-31T18:09:21.108Z,9.10
2018-12-31T18:12:02.912Z,9.20
2018-12-31T18:14:44.642Z,9.10
2018-12-31T18:17:26.907Z,9.10
2018-12-31T18:20:09.259Z,9.10
2018-12-31T18:22:51.718Z,9.10
2018-12-31T18:25:33.937Z,9.10
2018-12-31T18:28:16.307Z,9.10
2018-12-31T18:30:58.144Z,9.00
2018-12-31T18:33:39.944Z,9.10
2018-12-31T18:36:21.816Z,9.00
2018-12-31T18:39:04.525Z,9.00
2018-12-31T18:41:46.040Z,9.00
2018-12-31T18:44:28.462Z,9.00
2018-12-31T18:47:10.025Z,8.90
2018-12-31T18:49:51.789Z,8.90
2018-12-31T18:52:33.736Z,8.90
2018-12-31T18:55:15.456Z,8.90
2018-12-31T18:57:57.066Z,8.90
2018-12-31T19:00:39.042Z,8.80
2018-12-31T19:03:21.248Z,8.70
2018-12-31T19:06:03.430Z,8.70
2018-12-31T19:08:45.346Z,8.70
2018-12-31T19:11:27.411Z,8.70
2018-12-31T19:14:09.246Z,8.70
2018-12-31T19:16:50.919Z,8.70
2018-12-31T19:19:33.414Z,8.60
2018-12-31T19:22:15.296Z,8.60
2018-12-31T19:24:57.279Z,8.50
2018-12-31T19:27:39.304Z,8.60
2018-12-31T19:30:21.263Z,8.60
2018-12-31T19:33:03.015Z,8.70
2018-12-31T19:35:44.990Z,8.70
2018-12-31T19:38:26.877Z,8.80
2018-12-31T19:41:09.376Z,8.90
2018-12-31T19:43:51.119Z,8.90
2018-12-31T19:46:33.448Z,8.90
2018-12-31T19:49:15.662Z,9.00
2018-12-31T19:51:57.295Z,9.00
2018-12-31T19:54:39.662Z,9.00
2018-12-31T19:57:21.732Z,9.10
2018-12-31T20:00:03.694Z,9.10
2018-12-31T20:02:45.811Z,9.10
2018-12-31T20:05:27.790Z,9.20
2018-12-31T20:08:09.888Z,9.20
2018-12-31T20:10:52.290Z,9.20
2018-12-31T20:13:34.364Z,9.20
2018-12-31T20:16:16.305Z,9.30
2018-12-31T20:18:58.430Z,9.30
2018-12-31T20:21:40.381Z,9.30
2018-12-31T20:24:22.111Z,9.30
2018-12-31T20:27:04.222Z,9.30
2018-12-31T20:29:46.618Z,9.30
2018-12-31T20:32:28.047Z,9.30
2018-12-31T20:35:10.212Z,9.30
2018-12-31T20:37:52.606Z,9.30
2018-12-31T20:40:34.767Z,9.30
2018-12-31T20:43:16.758Z,9.30
2018-12-31T20:45:59.016Z,9.30
2018-12-31T20:48:41.030Z,9.30
2018-12-31T20:51:22.640Z,9.30
2018-12-31T20:54:05.096Z,9.30
2018-12-31T20:56:46.781Z,9.30
2018-12-31T20:59:28.586Z,9.30
2018-12-31T21:02:10.456Z,9.30
2018-12-31T21:04:52.669Z,9.30
2018-12-31T21:07:34.697Z,9.30
2018-12-31T21:10:16.345Z,9.30
2018-12-31T21:12:58.505Z,9.20
2018-12-31T21:15:40.244Z,9.30
2018-12-31T21:18:22.272Z,9.30
2018-12-31T21:21:04.254Z,9.30
2018-12-31T21:23:46.025Z,9.30
2018-12-31T21:26:27.500Z,9.30
2018-12-31T21:29:09.281Z,9.40
2018-12-31T21:31:51.608Z,9.30
2018-12-31T21:34:33.424Z,9.40
2018-12-31T21:37:15.567Z,9.40
2018-12-31T21:39:57.923Z,9.40
2018-12-31T21:42:40.066Z,9.40
2018-12-31T21:45:22.255Z,9.40
2018-12-31T21:48:03.974Z,9.40
2018-12-31T21:50:46.277Z,9.40
2018-12-31T21:53:28.115Z,9.40
2018-12-31T21:56:10.228Z,9.40
2018-12-31T21:58:52.179Z,9.40
2018-12-31T22:01:34.414Z,9.50
2018-12-31T22:04:16.369Z,9.50
2018-12-31T22:06:58.709Z,9.50
2018-12-31T22:09:40.854Z,9.50
2018-12-31T22:12:23.052Z,9.50
2018-12-31T22:15:07.960Z,9.50
2018-12-31T22:17:49.788Z,9.40
2018-12-31T22:20:31.627Z,9.50
2018-12-31T22:23:13.360Z,9.50
2018-12-31T22:25:55.130Z,9.50
2018-12-31T22:28:37.141Z,9.40
2018-12-31T22:31:19.323Z,9.50
2018-12-31T22:34:01.449Z,9.40
2018-12-31T22:36:43.338Z,9.50
2018-12-31T22:39:25.175Z,9.50
2018-12-31T22:42:06.700Z,9.50
2018-12-31T22:44:48.263Z,9.50
2018-12-31T22:47:30.794Z,9.50
2018-12-31T22:50:12.914Z,9.50
2018-12-31T22:52:54.812Z,9.50
2018-12-31T22:55:36.521Z,9.50
2018-12-31T22:58:18.178Z,9.50
2018-12-31T23:01:01.571Z,9.50
2018-12-31T23:03:43.677Z,9.50
2018-12-31T23:06:25.868Z,9.50
2018-12-31T23:09:07.748Z,9.50
2018-12-31T23:11:49.692Z,9.50
2018-12-31T23:14:31.287Z,9.50
2018-12-31T23:17:13.048Z,9.50
2018-12-31T23:19:54.896Z,9.50
2018-12-31T23:22:36.680Z,9.50
2018-12-31T23:25:18.401Z,9.50
2018-12-31T23:28:00.138Z,9.50
2018-12-31T23:30:42.084Z,9.50
2018-12-31T23:33:24.238Z,9.50
2018-12-31T23:36:06.556Z,9.50
2018-12-31T23:38:48.298Z,9.50
2018-12-31T23:41:30.332Z,9.50
2018-12-31T23:44:12.243Z,9.50
2018-12-31T23:46:54.264Z,9.50
2018-12-31T23:49:36.051Z,9.50
2018-12-31T23:52:17.957Z,9.50
2018-12-31T23:55:00.161Z,9.60
2018-12-31T23:57:42.476Z,9.50
